Terminal Aerodrome Forecast
Issued by NWS Upton, NY

Home | Current Version | Previous Version | Text Only | Print | Product List | Glossary On
Versions: 1 2 3 4 5 6 7 8 9 10 11 12 13 14 15 16 17 18 19 20 21 22 23 24
000
FTUS41 KOKX 231400 AAA
TAFBDR
TAF AMD
KBDR 231430Z 2315/2412 22008KT P6SM FEW250
     FM231500 19011KT P6SM SCT050
     FM240100 VRB05KT P6SM SCT050 BKN250 PROB30 2402/2406 5SM TSRA
      BKN050CB
     FM240600 VRB05KT P6SM BKN120
     FM240800 32006KT P6SM BKN200
     FM241100 35006KT 6SM -SHRA BKN050=

USA.gov is the U.S. government's official web portal to all federal, state and local government web resources and services.